Time;durP1;ratioP1;P1;durP2;ratioP2;P2;SDS_P1;SDS_P2;PMS_P1;PMS_P2;Temp;Humidity;BMP_temperature;BMP_pressure;BME280_temperature;BME280_humidity;BME280_pressure;Samples;Min_cycle;Max_cycle;Signal;HPM_P1;HPM_P2
2023/03/17 00:00:25;;;;;;;7.13;4.55;;;;;;;2.30;79.28;99503.31;7339870;19;20406;-69
2023/03/17 00:02:50;;;;;;;8.05;4.30;;;;;;;2.31;79.09;99501.56;7338384;19;20022;-69
2023/03/17 00:05:28;;;;;;;7.28;4.22;;;;;;;2.33;79.18;99491.84;7338861;19;20022;-70
2023/03/17 00:07:54;;;;;;;7.53;3.78;;;;;;;2.33;79.15;99505.84;7346337;19;20120;-72
2023/03/17 00:10:24;;;;;;;7.20;3.80;;;;;;;2.35;79.16;99498.75;7348824;19;20017;-71
2023/03/17 00:12:52;;;;;;;7.28;4.07;;;;;;;2.33;78.87;99499.72;7338565;19;20022;-71
2023/03/17 00:15:16;;;;;;;11.40;4.28;;;;;;;2.31;78.70;99505.03;7345621;19;20029;-71
2023/03/17 00:17:42;;;;;;;8.30;3.90;;;;;;;2.30;78.82;99503.31;7343944;19;20026;-70
2023/03/17 00:20:11;;;;;;;9.93;4.07;;;;;;;2.31;78.70;99510.31;7341936;19;20017;-70
2023/03/17 00:22:36;;;;;;;8.20;4.20;;;;;;;2.31;78.95;99502.41;7342917;19;20007;-72
2023/03/17 00:25:00;;;;;;;6.10;3.90;;;;;;;2.32;78.98;99500.63;7340313;19;20017;-71
2023/03/17 00:27:27;;;;;;;6.40;3.70;;;;;;;2.29;79.15;99496.34;7340785;19;20042;-72
2023/03/17 00:29:51;;;;;;;6.47;3.88;;;;;;;2.24;78.87;99508.00;7341569;19;20014;-71
2023/03/17 00:32:20;;;;;;;5.63;3.58;;;;;;;2.19;78.71;99490.59;7341427;19;20018;-72
2023/03/17 00:34:48;;;;;;;5.43;3.20;;;;;;;2.14;78.88;99499.59;7337384;19;20011;-74
2023/03/17 00:37:13;;;;;;;7.25;3.70;;;;;;;2.12;78.84;99510.19;7337708;19;20010;-78
2023/03/17 00:39:39;;;;;;;5.70;3.90;;;;;;;2.10;78.80;99513.78;7341469;19;20007;-76
2023/03/17 00:42:04;;;;;;;7.40;3.90;;;;;;;2.10;78.79;99522.53;7341688;19;20348;-77
2023/03/17 00:44:29;;;;;;;6.00;3.63;;;;;;;2.08;78.88;99521.72;7342015;19;20023;-74
2023/03/17 00:46:55;;;;;;;5.22;3.25;;;;;;;2.07;78.80;99527.91;7343101;19;20014;-73
2023/03/17 00:49:22;;;;;;;7.35;3.83;;;;;;;2.09;78.87;99530.47;7342975;19;20476;-76
2023/03/17 00:51:48;;;;;;;5.95;4.13;;;;;;;2.07;78.90;99529.66;7346106;19;20019;-75
2023/03/17 00:54:14;;;;;;;6.95;4.05;;;;;;;2.07;78.77;99534.94;7344909;19;20111;-77
2023/03/17 00:56:40;;;;;;;9.50;5.15;;;;;;;2.05;78.73;99526.25;7348098;19;20018;-76
2023/03/17 00:59:16;;;;;;;9.88;5.38;;;;;;;2.08;78.78;99534.03;7354163;19;20327;-78
2023/03/17 01:01:42;;;;;;;7.18;3.97;;;;;;;2.01;78.53;99517.63;7353818;19;20023;-74
2023/03/17 01:04:09;;;;;;;9.93;5.40;;;;;;;2.03;78.72;99536.00;7353087;19;20030;-77
2023/03/17 01:06:34;;;;;;;7.85;5.05;;;;;;;2.00;78.85;99541.34;7353870;19;20019;-76
2023/03/17 01:08:58;;;;;;;13.60;5.88;;;;;;;2.01;78.84;99540.44;7351989;19;20131;-74
2023/03/17 01:11:23;;;;;;;15.60;6.45;;;;;;;1.98;78.88;99543.19;7347985;19;20023;-78
2023/03/17 01:13:47;;;;;;;11.25;6.13;;;;;;;2.01;78.97;99556.22;7348149;19;20024;-77
2023/03/17 01:16:14;;;;;;;13.95;6.85;;;;;;;2.00;78.96;99550.09;7347748;19;20062;-81
2023/03/17 01:18:38;;;;;;;13.13;6.45;;;;;;;2.00;78.97;99559.75;7349596;19;20019;-75
2023/03/17 01:21:03;;;;;;;10.52;6.60;;;;;;;1.96;78.89;99556.38;7343920;19;20032;-79
2023/03/17 01:23:28;;;;;;;11.77;6.35;;;;;;;1.98;78.86;99569.47;7347509;19;20030;-74
2023/03/17 01:25:53;;;;;;;15.63;8.38;;;;;;;2.00;78.81;99565.00;7349200;19;20011;-77
2023/03/17 01:28:18;;;;;;;14.75;6.95;;;;;;;1.96;79.07;99566.91;7347308;19;20027;-71
2023/03/17 01:30:44;;;;;;;11.80;6.45;;;;;;;1.95;78.84;99574.84;7347961;19;20019;-78
2023/03/17 01:33:11;;;;;;;9.57;5.65;;;;;;;1.90;78.88;99579.41;7347756;19;20014;-71
2023/03/17 01:35:37;;;;;;;11.93;5.80;;;;;;;1.88;79.06;99595.25;7346843;19;20017;-73
2023/03/17 01:38:02;;;;;;;13.93;6.25;;;;;;;1.85;78.94;99592.72;7347063;19;20018;-66
2023/03/17 01:40:35;;;;;;;12.18;5.78;;;;;;;1.91;79.11;99594.28;7344356;19;20015;-66
2023/03/17 01:43:09;;;;;;;9.90;5.32;;;;;;;1.91;79.16;99592.50;7347981;19;20355;-64
2023/03/17 01:46:11;;;;;;;9.98;4.65;;;;;;;1.94;79.13;99592.38;7348789;19;20022;-65
2023/03/17 01:48:39;;;;;;;10.75;5.47;;;;;;;1.83;78.97;99602.44;7346972;19;20015;-64
2023/03/17 01:51:05;;;;;;;9.50;4.45;;;;;;;1.83;78.84;99598.03;7348907;19;20350;-65
2023/03/17 01:53:32;;;;;;;10.32;4.43;;;;;;;1.78;78.88;99604.38;7347150;19;20327;-67
2023/03/17 01:55:57;;;;;;;6.25;3.83;;;;;;;1.70;78.71;99612.53;7344892;19;20017;-66
2023/03/17 01:58:23;;;;;;;5.88;3.80;;;;;;;1.66;78.83;99613.56;7347543;19;20022;-65
2023/03/17 02:00:49;;;;;;;7.07;4.03;;;;;;;1.66;78.84;99626.72;7344564;19;20011;-64
2023/03/17 02:03:14;;;;;;;5.82;3.60;;;;;;;1.65;78.72;99626.75;7348410;19;20022;-72
2023/03/17 02:05:39;;;;;;;4.90;3.38;;;;;;;1.64;78.68;99633.78;7345207;19;20123;-72
2023/03/17 02:08:15;;;;;;;6.50;3.38;;;;;;;1.69;78.96;99641.50;7344500;19;20034;-72
2023/03/17 02:10:41;;;;;;;7.00;3.33;;;;;;;1.65;78.85;99640.75;7344749;19;20027;-72
2023/03/17 02:13:09;;;;;;;8.75;4.03;;;;;;;1.65;78.65;99646.00;7343769;19;20379;-74
2023/03/17 02:15:42;;;;;;;6.75;4.00;;;;;;;1.67;78.62;99654.69;7343404;19;20022;-75
2023/03/17 02:18:08;;;;;;;5.68;3.38;;;;;;;1.69;78.38;99650.22;7345172;19;20018;-78
2023/03/17 02:20:34;;;;;;;6.68;3.47;;;;;;;1.71;78.46;99658.91;7348776;19;20034;-78
2023/03/17 02:23:00;;;;;;;9.15;4.05;;;;;;;1.75;78.58;99659.69;7350841;19;20010;-79
2023/03/17 02:25:29;;;;;;;8.32;4.38;;;;;;;1.76;78.33;99661.41;7349479;19;20022;-79
2023/03/17 02:28:00;;;;;;;5.95;3.40;;;;;;;1.78;78.38;99664.84;7348447;19;20015;-77
2023/03/17 02:30:25;;;;;;;7.40;3.55;;;;;;;1.77;78.26;99666.59;7350130;19;20014;-77
2023/03/17 02:32:50;;;;;;;5.50;3.55;;;;;;;1.76;78.26;99670.13;7349669;19;20362;-76
2023/03/17 02:35:16;;;;;;;6.28;3.70;;;;;;;1.77;78.10;99684.16;7348499;19;20014;-77
2023/03/17 02:37:42;;;;;;;7.15;3.88;;;;;;;1.80;78.17;99697.19;7344120;19;20370;-75
2023/03/17 02:40:10;;;;;;;6.22;3.70;;;;;;;1.81;78.00;99702.34;7346859;19;20094;-77
2023/03/17 02:42:34;;;;;;;5.28;3.67;;;;;;;1.78;77.89;99705.13;7348110;19;20513;-78
2023/03/17 02:44:59;;;;;;;7.05;3.53;;;;;;;1.78;77.75;99696.38;7349254;19;20040;-78
2023/03/17 02:47:24;;;;;;;7.68;3.67;;;;;;;1.77;77.55;99708.66;7348395;19;20050;-77
2023/03/17 02:49:49;;;;;;;7.30;3.50;;;;;;;1.76;77.67;99721.84;7345863;19;20026;-79
2023/03/17 02:52:14;;;;;;;5.88;4.07;;;;;;;1.74;77.51;99707.91;7348113;19;20024;-74
2023/03/17 02:54:39;;;;;;;4.97;2.95;;;;;;;1.74;77.41;99708.75;7346127;19;20014;-68
2023/03/17 02:57:04;;;;;;;4.72;3.08;;;;;;;1.74;77.44;99713.16;7345422;19;20466;-69
2023/03/17 02:59:28;;;;;;;9.23;3.33;;;;;;;1.75;77.45;99704.34;7345697;19;20015;-70
2023/03/17 03:01:54;;;;;;;5.00;3.10;;;;;;;1.73;77.17;99707.03;7349907;19;20098;-70
2023/03/17 03:04:19;;;;;;;9.77;3.38;;;;;;;1.71;77.17;99718.50;7356341;19;20026;-74
2023/03/17 03:06:44;;;;;;;7.40;3.15;;;;;;;1.71;77.00;99715.88;7347089;19;20035;-73
2023/03/17 03:09:10;;;;;;;6.82;2.83;;;;;;;1.70;77.06;99730.78;7344342;19;20128;-74
2023/03/17 03:11:35;;;;;;;6.10;3.13;;;;;;;1.71;77.06;99726.38;7344005;19;20182;-71
2023/03/17 03:14:00;;;;;;;12.05;3.60;;;;;;;1.71;76.76;99726.38;7344360;19;20102;-71
2023/03/17 03:16:25;;;;;;;4.38;2.45;;;;;;;1.71;76.76;99732.50;7343915;19;20342;-70
2023/03/17 03:18:49;;;;;;;5.65;2.75;;;;;;;1.69;76.69;99736.13;7342312;19;20014;-72
2023/03/17 03:21:14;;;;;;;6.20;2.75;;;;;;;1.69;76.38;99738.75;7335954;19;20018;-75
2023/03/17 03:23:39;;;;;;;3.75;2.83;;;;;;;1.66;75.99;99734.44;7342620;19;20018;-68
2023/03/17 03:26:04;;;;;;;4.35;2.05;;;;;;;1.67;75.61;99749.31;7342791;19;20015;-69
2023/03/17 03:28:29;;;;;;;3.00;2.05;;;;;;;1.67;75.37;99744.03;7345178;19;20026;-69
2023/03/17 03:30:54;;;;;;;2.88;2.10;;;;;;;1.67;75.70;99751.94;7341281;19;20026;-68
2023/03/17 03:33:19;;;;;;;6.28;2.00;;;;;;;1.68;75.57;99748.41;7342219;19;20017;-69
2023/03/17 03:35:43;;;;;;;4.22;2.15;;;;;;;1.68;75.28;99745.78;7341579;19;20034;-69
2023/03/17 03:38:08;;;;;;;3.40;1.98;;;;;;;1.66;75.07;99752.84;7342262;19;20021;-70
2023/03/17 03:40:34;;;;;;;7.80;2.20;;;;;;;1.68;74.98;99760.69;7339000;19;20018;-70
2023/03/17 03:42:59;;;;;;;3.22;2.00;;;;;;;1.67;74.86;99756.31;7342365;19;20022;-68
2023/03/17 03:45:24;;;;;;;3.67;2.05;;;;;;;1.62;74.72;99761.72;7340469;19;20017;-70
2023/03/17 03:47:49;;;;;;;5.28;2.20;;;;;;;1.61;74.25;99765.25;7343759;19;20018;-70
2023/03/17 03:50:14;;;;;;;2.95;1.75;;;;;;;1.63;73.92;99771.31;7343056;19;20026;-70
2023/03/17 03:52:39;;;;;;;2.33;1.45;;;;;;;1.64;73.90;99778.31;7340067;19;20075;-70
2023/03/17 03:55:04;;;;;;;3.90;2.00;;;;;;;1.68;74.21;99782.56;7339934;19;20022;-69
2023/03/17 03:57:29;;;;;;;1.42;1.13;;;;;;;1.68;73.85;99782.56;7341414;19;20115;-70
2023/03/17 03:59:53;;;;;;;4.40;1.58;;;;;;;1.68;73.92;99782.56;7338564;19;20007;-70
2023/03/17 04:02:19;;;;;;;4.53;1.92;;;;;;;1.68;73.75;99779.94;7339644;19;20014;-70
2023/03/17 04:04:44;;;;;;;3.60;2.15;;;;;;;1.63;73.09;99779.22;7339384;19;20021;-69
2023/03/17 04:07:09;;;;;;;3.72;1.98;;;;;;;1.69;73.20;99794.75;7339267;19;20018;-69
2023/03/17 04:09:34;;;;;;;7.15;2.20;;;;;;;1.69;72.85;99801.81;7341196;19;20026;-70
2023/03/17 04:11:59;;;;;;;3.28;1.90;;;;;;;1.70;73.04;99804.38;7340755;19;20015;-70
2023/03/17 04:14:24;;;;;;;2.92;1.60;;;;;;;1.75;72.92;99801.59;7342811;19;20014;-69
2023/03/17 04:16:49;;;;;;;1.75;1.45;;;;;;;1.76;72.46;99812.06;7338787;19;20007;-70
2023/03/17 04:19:14;;;;;;;3.22;1.65;;;;;;;1.77;72.28;99816.41;7339249;19;20098;-70
2023/03/17 04:21:38;;;;;;;4.80;2.22;;;;;;;1.82;72.88;99813.63;7337524;19;20048;-69
2023/03/17 04:24:04;;;;;;;7.68;2.55;;;;;;;1.79;72.61;99813.75;7337162;19;20470;-69
2023/03/17 04:26:28;;;;;;;3.22;1.92;;;;;;;1.80;72.68;99818.94;7336530;19;20019;-68
2023/03/17 04:28:53;;;;;;;4.72;1.52;;;;;;;1.80;71.94;99818.94;7337582;19;20033;-69
2023/03/17 04:31:18;;;;;;;3.03;1.55;;;;;;;1.81;71.96;99825.91;7336745;19;20020;-68
2023/03/17 04:33:43;;;;;;;2.85;1.52;;;;;;;1.80;71.77;99834.72;7344359;19;20035;-68
2023/03/17 04:36:17;;;;;;;7.95;2.28;;;;;;;1.84;71.58;99835.47;7343936;19;20095;-68
2023/03/17 04:38:41;;;;;;;2.15;1.60;;;;;;;1.87;71.78;99845.03;7345415;19;20093;-75
2023/03/17 04:41:06;;;;;;;2.25;1.33;;;;;;;1.87;71.17;99859.03;7344095;19;20095;-75
2023/03/17 04:43:30;;;;;;;2.50;1.48;;;;;;;1.93;71.25;99866.69;7346770;19;20343;-77
2023/03/17 04:45:55;;;;;;;5.32;2.30;;;;;;;1.94;71.03;99872.81;7347130;19;20288;-77
2023/03/17 04:48:20;;;;;;;3.53;1.60;;;;;;;1.96;70.79;99881.50;7350279;19;20497;-76
2023/03/17 04:50:46;;;;;;;4.57;2.58;;;;;;;1.96;70.56;99879.75;7347786;19;20387;-77
2023/03/17 04:53:11;;;;;;;2.75;1.33;;;;;;;1.95;70.40;99875.41;7349559;19;20022;-77
2023/03/17 04:55:36;;;;;;;3.75;1.63;;;;;;;1.94;69.98;99883.34;7347854;19;20021;-79
2023/03/17 04:58:01;;;;;;;4.18;1.50;;;;;;;1.97;69.89;99888.50;7349571;19;20014;-78
2023/03/17 05:00:25;;;;;;;2.58;1.30;;;;;;;1.99;69.66;99884.91;7348582;19;20095;-77
2023/03/17 05:02:50;;;;;;;2.50;1.55;;;;;;;2.05;69.31;99882.06;7349177;19;20013;-76
2023/03/17 05:05:14;;;;;;;1.45;1.20;;;;;;;2.04;68.91;99890.88;7350690;19;20405;-78
2023/03/17 05:07:40;;;;;;;2.80;1.42;;;;;;;2.05;68.71;99902.25;7352539;19;20025;-78
2023/03/17 05:10:05;;;;;;;1.75;1.33;;;;;;;2.06;68.20;99902.19;7347297;19;20771;-70
2023/03/17 05:12:30;;;;;;;1.85;1.27;;;;;;;2.11;68.60;99912.56;7347869;19;20790;-71
2023/03/17 05:14:55;;;;;;;4.30;1.67;;;;;;;2.17;68.17;99915.84;7345527;19;20476;-70
2023/03/17 05:17:19;;;;;;;5.15;1.60;;;;;;;2.23;67.99;99914.81;7345250;19;20046;-69
2023/03/17 05:19:44;;;;;;;3.40;1.40;;;;;;;2.27;67.42;99923.44;7346798;19;20017;-76
2023/03/17 05:22:09;;;;;;;2.85;1.75;;;;;;;2.31;67.61;99936.44;7347760;19;20317;-76
2023/03/17 05:24:33;;;;;;;3.40;1.48;;;;;;;2.34;67.46;99928.47;7349725;19;20018;-77
2023/03/17 05:26:58;;;;;;;2.15;1.42;;;;;;;2.36;67.30;99937.16;7347688;19;20019;-77
2023/03/17 05:29:23;;;;;;;3.25;1.65;;;;;;;2.38;66.98;99945.84;7349513;19;20010;-78
2023/03/17 05:31:47;;;;;;;1.70;1.42;;;;;;;2.40;66.55;99951.91;7348622;19;20022;-76
2023/03/17 05:34:12;;;;;;;5.35;1.88;;;;;;;2.49;66.69;99946.34;7352395;19;20015;-77
2023/03/17 05:36:37;;;;;;;2.42;1.35;;;;;;;2.54;66.25;99949.69;7346956;19;20006;-78
2023/03/17 05:39:02;;;;;;;1.60;1.08;;;;;;;2.61;66.29;99950.34;7345620;19;20018;-78
2023/03/17 05:41:27;;;;;;;2.75;1.63;;;;;;;2.65;65.94;99959.84;7345503;19;20026;-78
2023/03/17 05:43:52;;;;;;;4.18;1.45;;;;;;;2.69;65.81;99958.84;7347002;19;20151;-77
2023/03/17 05:46:16;;;;;;;1.08;0.98;;;;;;;2.73;65.08;99959.56;7347998;19;20410;-76
2023/03/17 05:48:41;;;;;;;2.25;1.50;;;;;;;2.77;65.65;99961.19;7345600;19;20017;-76
2023/03/17 05:51:06;;;;;;;4.72;1.80;;;;;;;2.77;65.43;99966.47;7345551;19;20030;-76
2023/03/17 05:53:31;;;;;;;3.33;1.50;;;;;;;2.80;65.18;99961.09;7347678;19;20323;-77
2023/03/17 05:55:56;;;;;;;2.53;1.55;;;;;;;2.81;64.47;99973.38;7347406;19;20013;-78
2023/03/17 05:58:21;;;;;;;2.85;1.80;;;;;;;2.81;64.51;99971.59;7351260;19;20014;-76
2023/03/17 06:00:46;;;;;;;2.17;1.60;;;;;;;2.82;64.05;99965.38;7355747;19;20074;-76
2023/03/17 06:03:12;;;;;;;2.38;1.48;;;;;;;2.80;64.14;99969.88;7356701;19;20007;-77
2023/03/17 06:05:37;;;;;;;3.05;1.73;;;;;;;2.83;63.97;99972.38;7356508;19;20019;-77
2023/03/17 06:08:03;;;;;;;3.85;1.75;;;;;;;2.81;63.75;99986.53;7359918;19;20022;-77
2023/03/17 06:10:28;;;;;;;2.60;1.40;;;;;;;2.76;63.33;99991.06;7348695;19;20010;-77
2023/03/17 06:12:52;;;;;;;4.03;1.20;;;;;;;2.74;62.85;99992.88;7347390;19;20011;-79
2023/03/17 06:15:18;;;;;;;7.65;1.75;;;;;;;2.80;63.53;99987.44;7348945;19;20021;-77
2023/03/17 06:17:43;;;;;;;4.50;1.52;;;;;;;2.84;63.25;100000.41;7346401;19;20481;-76
2023/03/17 06:20:10;;;;;;;5.68;1.80;;;;;;;2.90;62.53;99992.31;7347895;19;20347;-77
2023/03/17 06:22:36;;;;;;;6.78;2.20;;;;;;;2.94;62.13;99982.53;7348196;19;20010;-75
2023/03/17 06:25:00;;;;;;;3.53;1.55;;;;;;;3.00;61.96;99984.97;7347322;19;20021;-79
2023/03/17 06:27:25;;;;;;;2.67;1.58;;;;;;;3.04;62.15;99991.84;7350997;19;20470;-76
2023/03/17 06:29:50;;;;;;;6.25;2.47;;;;;;;3.06;62.25;99987.38;7348460;19;20031;-77
2023/03/17 06:32:15;;;;;;;3.47;2.08;;;;;;;3.16;62.13;100001.94;7348325;19;20022;-78
2023/03/17 06:34:41;;;;;;;3.50;2.28;;;;;;;3.35;61.73;99990.75;7350996;19;20024;-78
2023/03/17 06:37:06;;;;;;;4.45;2.30;;;;;;;3.62;61.48;99989.69;7354457;19;20015;-76
2023/03/17 06:39:30;;;;;;;2.80;1.67;;;;;;;3.83;60.74;99998.59;7350803;19;20009;-77
2023/03/17 06:41:55;;;;;;;3.45;2.20;;;;;;;4.05;59.22;100015.31;7351310;19;20454;-79
2023/03/17 06:44:20;;;;;;;3.67;2.00;;;;;;;4.30;59.04;100005.50;7349437;19;20002;-78
2023/03/17 06:46:44;;;;;;;3.78;2.45;;;;;;;4.52;59.11;100001.97;7347796;19;20319;-77
2023/03/17 06:49:12;;;;;;;3.40;1.67;;;;;;;4.67;58.36;100014.56;7349032;19;20085;-76
2023/03/17 06:51:36;;;;;;;6.25;2.58;;;;;;;4.72;58.28;100013.47;7345749;19;20018;-76
2023/03/17 06:54:01;;;;;;;4.15;2.63;;;;;;;4.69;58.07;100010.06;7344125;19;20006;-72
2023/03/17 06:56:26;;;;;;;4.20;2.40;;;;;;;4.64;57.60;100007.59;7343046;19;20080;-77
2023/03/17 06:58:51;;;;;;;5.47;2.38;;;;;;;4.63;57.44;100012.94;7347290;19;20056;-79
2023/03/17 07:01:16;;;;;;;3.92;2.35;;;;;;;4.59;57.76;100009.59;7346025;19;20019;-75
2023/03/17 07:03:41;;;;;;;4.03;2.20;;;;;;;4.57;58.04;100007.94;7349214;19;20011;-75
2023/03/17 07:06:06;;;;;;;8.07;3.50;;;;;;;4.57;57.88;100005.31;7349069;19;20014;-71
2023/03/17 07:08:30;;;;;;;4.03;2.03;;;;;;;4.62;57.64;100008.63;7349258;19;20010;-71
2023/03/17 07:10:56;;;;;;;8.40;2.38;;;;;;;4.73;57.64;100009.03;7349814;19;20034;-71
2023/03/17 07:13:21;;;;;;;6.22;2.70;;;;;;;4.82;57.24;100016.56;7351326;19;20437;-71
2023/03/17 07:15:45;;;;;;;5.32;2.78;;;;;;;4.96;56.46;100014.22;7354820;19;20010;-70
2023/03/17 07:18:10;;;;;;;3.65;2.08;;;;;;;5.14;56.35;100020.47;7343847;19;20015;-70
2023/03/17 07:20:35;;;;;;;2.30;1.98;;;;;;;5.24;56.33;100026.22;7346191;19;20007;-71
2023/03/17 07:23:00;;;;;;;4.57;2.60;;;;;;;5.37;55.76;100027.41;7342147;19;20006;-71
2023/03/17 07:25:25;;;;;;;6.97;2.60;;;;;;;5.46;55.11;100027.84;7341217;19;20808;-71
2023/03/17 07:27:50;;;;;;;5.18;1.88;;;;;;;5.51;54.75;100024.16;7342783;19;20021;-69
2023/03/17 07:30:17;;;;;;;7.03;3.67;;;;;;;5.58;54.63;100037.03;7342423;19;20431;-71
2023/03/17 07:32:42;;;;;;;6.13;2.45;;;;;;;5.67;53.82;100035.75;7340509;19;20466;-71
2023/03/17 07:35:07;;;;;;;3.22;2.10;;;;;;;5.68;53.21;100027.75;7340407;19;20339;-71
2023/03/17 07:37:32;;;;;;;2.75;1.75;;;;;;;5.80;52.71;100040.41;7340110;19;20018;-72
2023/03/17 07:39:56;;;;;;;4.05;1.90;;;;;;;6.00;52.38;100028.94;7339436;19;20014;-71
2023/03/17 07:42:21;;;;;;;5.07;1.58;;;;;;;6.30;51.88;100037.25;7345633;19;20022;-69
2023/03/17 07:44:45;;;;;;;4.15;2.22;;;;;;;6.65;51.14;100046.13;7343873;19;20018;-70
2023/03/17 07:47:10;;;;;;;4.53;2.22;;;;;;;7.14;50.18;100041.00;7341576;19;20090;-69
2023/03/17 07:49:35;;;;;;;5.20;2.40;;;;;;;7.65;49.19;100040.09;7342064;19;20019;-70
2023/03/17 07:52:00;;;;;;;5.82;2.58;;;;;;;8.20;47.65;100037.97;7341756;19;20031;-71
2023/03/17 07:54:26;;;;;;;4.65;2.13;;;;;;;8.74;46.73;100041.13;7342496;19;20022;-70
2023/03/17 07:56:51;;;;;;;6.05;2.65;;;;;;;9.30;45.63;100050.25;7343889;19;20045;-70
2023/03/17 07:59:17;;;;;;;3.05;1.80;;;;;;;9.76;43.80;100051.81;7342786;19;20348;-70
2023/03/17 08:01:41;;;;;;;1.90;1.35;;;;;;;10.37;42.77;100040.03;7343653;19;20018;-71
2023/03/17 08:04:06;;;;;;;4.93;1.73;;;;;;;11.19;41.52;100044.34;7341957;19;20034;-74
2023/03/17 08:06:31;;;;;;;3.67;2.08;;;;;;;12.25;40.13;100050.28;7341213;19;20024;-75
2023/03/17 08:08:56;;;;;;;5.57;2.70;;;;;;;13.39;37.72;100048.94;7342829;19;20019;-76
2023/03/17 08:11:22;;;;;;;3.58;2.42;;;;;;;14.04;35.64;100049.16;7343581;19;20027;-74
2023/03/17 08:13:46;;;;;;;2.05;1.83;;;;;;;14.94;34.92;100054.41;7343716;19;20014;-75
2023/03/17 08:16:11;;;;;;;6.88;2.53;;;;;;;16.08;32.56;100058.06;7343819;19;20014;-78
2023/03/17 08:18:36;;;;;;;5.57;2.20;;;;;;;17.17;31.49;100061.63;7345991;19;20026;-75
2023/03/17 08:21:01;;;;;;;2.80;1.80;;;;;;;17.48;29.86;100059.66;7342592;19;20082;-77
2023/03/17 08:23:26;;;;;;;3.55;1.55;;;;;;;16.90;30.11;100062.31;7341053;19;20032;-77
2023/03/17 08:25:56;;;;;;;4.03;1.90;;;;;;;16.44;31.54;100083.56;7347430;19;20011;-79
2023/03/17 08:28:20;;;;;;;4.85;1.88;;;;;;;15.45;31.12;100082.28;7351003;19;20015;-76
2023/03/17 08:30:46;;;;;;;5.80;2.25;;;;;;;14.63;31.91;100091.81;7345158;19;20011;-80
2023/03/17 08:33:11;;;;;;;10.55;2.30;;;;;;;14.26;32.20;100090.34;7344430;19;20024;-79
2023/03/17 08:35:36;;;;;;;2.85;1.77;;;;;;;14.61;31.56;100098.28;7345367;19;20015;-76
2023/03/17 08:38:01;;;;;;;3.58;1.73;;;;;;;16.36;30.23;100103.09;7345930;19;20018;-77
2023/03/17 08:40:25;;;;;;;8.75;3.28;;;;;;;18.91;27.80;100105.22;7344442;19;20010;-76
2023/03/17 08:42:50;;;;;;;4.00;2.25;;;;;;;21.23;25.01;100101.75;7344846;19;20025;-74
2023/03/17 08:45:17;;;;;;;5.40;2.88;;;;;;;22.91;23.52;100096.47;7339047;19;20086;-71
2023/03/17 08:47:41;;;;;;;2.50;2.20;;;;;;;24.26;22.51;100093.91;7338337;19;20034;-71
2023/03/17 08:50:12;;;;;;;4.68;2.95;;;;;;;25.52;21.19;100088.97;7341861;19;20022;-72
2023/03/17 08:52:38;;;;;;;4.78;2.47;;;;;;;26.28;20.66;100087.38;7338637;19;20014;-72
2023/03/17 08:55:03;;;;;;;4.68;2.97;;;;;;;26.65;19.97;100087.97;7339666;19;20047;-71
2023/03/17 08:57:28;;;;;;;3.72;2.88;;;;;;;27.16;19.65;100101.28;7338139;19;20018;-71
2023/03/17 08:59:53;;;;;;;4.13;2.90;;;;;;;27.50;19.09;100100.31;7338790;19;20030;-72
2023/03/17 09:02:18;;;;;;;5.07;3.15;;;;;;;27.72;18.57;100121.88;7337827;19;20015;-70
2023/03/17 09:04:42;;;;;;;5.05;2.50;;;;;;;27.44;18.52;100107.47;7336016;19;20046;-71
2023/03/17 09:07:09;;;;;;;4.18;2.63;;;;;;;27.16;18.45;100120.44;7337107;19;20011;-71
2023/03/17 09:09:34;;;;;;;2.78;2.25;;;;;;;26.50;18.41;100122.84;7336361;19;20014;-70
2023/03/17 09:11:59;;;;;;;4.53;2.42;;;;;;;25.55;18.27;100129.56;7336328;19;20013;-69
2023/03/17 09:14:24;;;;;;;7.32;2.58;;;;;;;24.92;18.76;100136.59;7339689;19;20018;-70
2023/03/17 09:16:48;;;;;;;2.55;2.28;;;;;;;24.74;18.95;100132.53;7336838;19;20007;-71
2023/03/17 09:19:13;;;;;;;10.45;3.05;;;;;;;24.42;18.85;100125.56;7342976;19;20011;-70
2023/03/17 09:21:38;;;;;;;4.10;2.70;;;;;;;24.52;18.97;100123.41;7344805;19;20019;-71
2023/03/17 09:24:03;;;;;;;4.70;2.42;;;;;;;24.62;18.44;100113.06;7345213;19;20013;-70
2023/03/17 09:26:27;;;;;;;2.75;2.20;;;;;;;24.60;18.39;100121.44;7347423;19;20038;-70
2023/03/17 09:28:53;;;;;;;2.70;2.50;;;;;;;23.92;18.28;100120.78;7345131;19;20038;-70
2023/03/17 09:31:17;;;;;;;6.85;2.17;;;;;;;23.35;19.12;100121.19;7350887;19;20014;-69
2023/03/17 09:33:42;;;;;;;5.80;2.72;;;;;;;23.38;18.61;100115.38;7346095;19;20042;-69
2023/03/17 09:36:09;;;;;;;6.57;2.67;;;;;;;22.92;18.79;100128.88;7350157;19;20010;-70
2023/03/17 09:38:33;;;;;;;2.60;2.13;;;;;;;23.20;19.21;100131.13;7351180;19;20026;-69
2023/03/17 09:41:22;;;;;;;2.97;2.28;;;;;;;23.30;20.41;100131.75;7349900;19;20038;-71
2023/03/17 09:44:25;;;;;;;5.30;2.40;;;;;;;23.60;20.75;100130.03;7345949;19;20018;-70
2023/03/17 09:47:12;;;;;;;3.00;2.08;;;;;;;23.63;19.15;100137.84;7345493;19;20023;-69
2023/03/17 09:49:43;;;;;;;1.83;1.63;;;;;;;24.02;18.80;100138.56;7345513;19;20025;-71
2023/03/17 09:52:17;;;;;;;3.85;2.50;;;;;;;25.02;17.90;100147.22;7345993;19;20093;-73
2023/03/17 09:54:45;;;;;;;3.95;2.00;;;;;;;24.82;17.77;100140.63;7352537;19;20051;-71
2023/03/17 09:57:23;;;;;;;3.35;2.53;;;;;;;25.08;17.79;100143.72;7349286;19;20018;-76
2023/03/17 09:59:54;;;;;;;4.80;2.03;;;;;;;25.33;16.79;100150.53;7356128;19;20338;-78
2023/03/17 10:02:29;;;;;;;13.27;2.78;;;;;;;25.63;17.78;100162.22;7351911;19;20014;-73
2023/03/17 10:04:54;;;;;;;2.55;1.92;;;;;;;24.81;16.36;100156.16;7350593;19;20010;-74
2023/03/17 10:07:33;;;;;;;2.88;1.90;;;;;;;25.01;16.43;100156.44;7360362;19;20019;-74
2023/03/17 10:10:02;;;;;;;2.17;1.77;;;;;;;24.09;16.08;100158.56;7364323;19;20010;-74
2023/03/17 10:12:48;;;;;;;3.28;2.08;;;;;;;23.76;17.41;100158.00;7357019;19;20018;-73
2023/03/17 10:15:44;;;;;;;2.38;1.73;;;;;;;21.89;16.58;100165.09;7367429;19;20014;-75
2023/03/17 10:18:15;;;;;;;3.05;1.73;;;;;;;20.41;18.34;100163.91;7356034;19;20054;-76
2023/03/17 10:20:48;;;;;;;2.42;1.75;;;;;;;19.47;19.05;100171.69;7360594;19;20015;-75
2023/03/17 10:23:17;;;;;;;1.95;1.75;;;;;;;18.65;19.30;100167.19;7361929;19;20014;-75
2023/03/17 10:25:42;;;;;;;2.65;1.83;;;;;;;17.34;19.43;100171.41;7359897;19;20018;-74
2023/03/17 10:28:30;;;;;;;3.80;1.90;;;;;;;15.86;21.29;100167.50;7360573;19;20029;-73
2023/03/17 10:31:10;;;;;;;4.05;1.98;;;;;;;13.47;23.21;100176.91;7359740;19;20026;-74
2023/03/17 10:33:35;;;;;;;3.10;1.35;;;;;;;11.60;24.16;100178.59;7367691;19;20078;-74
2023/03/17 10:36:08;;;;;;;3.60;1.70;;;;;;;10.69;25.59;100183.72;7369417;19;20025;-73
2023/03/17 10:38:32;;;;;;;4.57;2.05;;;;;;;9.60;26.52;100191.25;7364728;19;20379;-75
2023/03/17 10:40:59;;;;;;;1.95;1.45;;;;;;;9.02;26.92;100195.50;7365943;19;20014;-74
2023/03/17 10:43:28;;;;;;;1.90;1.20;;;;;;;8.53;26.38;100191.16;7367841;19;20014;-77
2023/03/17 10:46:01;;;;;;;2.47;1.38;;;;;;;7.95;27.06;100191.56;7367320;19;20023;-77
2023/03/17 10:48:27;;;;;;;3.30;1.70;;;;;;;7.48;27.67;100194.84;7356961;19;20030;-76
2023/03/17 10:50:57;;;;;;;1.88;1.33;;;;;;;7.20;28.23;100203.31;7357221;19;20461;-74
2023/03/17 10:53:26;;;;;;;2.30;1.52;;;;;;;6.79;29.60;100205.28;7346048;19;20366;-76
2023/03/17 10:55:53;;;;;;;1.52;1.15;;;;;;;6.52;29.67;100204.78;7346176;19;20053;-75
2023/03/17 10:58:22;;;;;;;1.48;1.38;;;;;;;6.41;30.37;100214.16;7348019;19;20015;-77
2023/03/17 11:00:55;;;;;;;4.93;1.83;;;;;;;6.38;30.70;100207.19;7346435;19;20381;-77
2023/03/17 11:03:27;;;;;;;7.95;2.65;;;;;;;6.33;31.26;100210.97;7343914;19;20007;-65
2023/03/17 11:06:00;;;;;;;4.20;1.73;;;;;;;6.29;30.63;100206.75;7339720;19;20074;-65
2023/03/17 11:08:30;;;;;;;2.63;1.42;;;;;;;6.19;31.16;100208.97;7346509;19;20019;-67
2023/03/17 11:10:55;;;;;;;4.10;1.58;;;;;;;6.06;31.20;100227.16;7346938;19;20053;-65
2023/03/17 11:13:27;;;;;;;3.50;2.45;;;;;;;6.02;32.43;100222.94;7343533;19;20018;-67
2023/03/17 11:16:03;;;;;;;4.22;2.10;;;;;;;6.03;32.91;100222.00;7346502;19;20031;-65
2023/03/17 11:18:39;;;;;;;4.78;2.03;;;;;;;6.03;32.76;100219.34;7345869;19;20022;-66
2023/03/17 11:21:14;;;;;;;2.78;1.90;;;;;;;6.03;33.14;100229.94;7343571;19;20018;-66
2023/03/17 11:23:50;;;;;;;3.53;1.90;;;;;;;6.01;33.68;100236.22;7341094;19;20208;-67
2023/03/17 11:26:21;;;;;;;1.55;1.42;;;;;;;5.92;33.88;100232.19;7342225;19;20038;-66
2023/03/17 11:28:55;;;;;;;3.33;2.00;;;;;;;5.97;35.15;100237.31;7342665;19;20102;-66
2023/03/17 11:31:31;;;;;;;1.77;1.63;;;;;;;6.01;34.31;100226.50;7346359;19;20345;-66
2023/03/17 11:34:07;;;;;;;3.80;1.98;;;;;;;6.01;34.39;100223.00;7341518;19;20026;-66